Time;durP1;ratioP1;P1;durP2;ratioP2;P2;SDS_P1;SDS_P2;PMS_P1;PMS_P2;Temp;Humidity;BMP_temperature;BMP_pressure;BME280_temperature;BME280_humidity;BME280_pressure;Samples;Min_cycle;Max_cycle;Signal;HPM_P1;HPM_P2
2023/07/02 00:01:53;;;;;;;7.17;3.20;;;16.50;77.90;;;;;;4987009;28;20055;-84
2023/07/02 00:04:20;;;;;;;5.65;2.90;;;16.50;77.90;;;;;;4977737;28;20043;-84
2023/07/02 00:06:48;;;;;;;7.97;3.35;;;16.50;78.00;;;;;;5009965;28;20058;-84
2023/07/02 00:09:16;;;;;;;8.35;3.40;;;16.50;77.90;;;;;;5004514;28;20097;-84
2023/07/02 00:11:45;;;;;;;7.75;3.60;;;16.50;78.00;;;;;;4989602;28;20054;-84
2023/07/02 00:14:13;;;;;;;9.43;3.60;;;16.50;78.00;;;;;;5003457;28;20472;-84
2023/07/02 00:16:47;;;;;;;7.85;3.30;;;16.40;78.00;;;;;;4990652;28;20760;-84
2023/07/02 00:19:15;;;;;;;6.55;3.25;;;16.40;78.00;;;;;;5007353;28;20186;-84
2023/07/02 00:21:42;;;;;;;8.93;3.28;;;16.40;77.90;;;;;;5008978;28;20108;-84
2023/07/02 00:24:10;;;;;;;8.82;3.80;;;16.40;77.70;;;;;;4996078;28;20078;-84
2023/07/02 00:26:40;;;;;;;9.00;3.30;;;16.40;77.60;;;;;;5007265;28;20114;-84
2023/07/02 00:29:10;;;;;;;7.88;3.17;;;16.40;77.60;;;;;;4990816;28;20137;-84
2023/07/02 00:31:37;;;;;;;11.05;3.88;;;16.40;77.60;;;;;;5019354;28;20050;-84
2023/07/02 00:34:04;;;;;;;10.35;3.85;;;16.30;77.30;;;;;;4992779;28;20050;-84
2023/07/02 00:36:32;;;;;;;10.80;4.03;;;16.20;76.90;;;;;;5009075;28;20054;-84
2023/07/02 00:38:59;;;;;;;11.57;4.13;;;16.20;76.50;;;;;;5008064;28;20105;-84
2023/07/02 00:41:27;;;;;;;8.98;3.45;;;16.20;76.30;;;;;;5009584;28;20046;-84
2023/07/02 00:43:56;;;;;;;12.35;4.28;;;16.10;76.50;;;;;;5006545;28;20060;-84
2023/07/02 00:46:25;;;;;;;10.68;4.20;;;16.10;76.40;;;;;;4990164;28;20070;-84
2023/07/02 00:48:54;;;;;;;10.23;3.67;;;16.00;76.30;;;;;;5020095;28;20093;-84
2023/07/02 00:51:23;;;;;;;12.37;4.00;;;16.00;76.20;;;;;;5026342;28;20554;-84
2023/07/02 00:53:51;;;;;;;11.90;4.05;;;16.00;76.20;;;;;;4987493;28;20051;-84
2023/07/02 00:56:19;;;;;;;13.20;4.80;;;16.00;76.00;;;;;;4993159;28;20054;-84
2023/07/02 00:58:50;;;;;;;10.38;3.90;;;16.00;76.00;;;;;;5009883;28;20431;-84
2023/07/02 01:01:20;;;;;;;12.27;4.65;;;16.00;75.60;;;;;;5022578;28;20531;-84
2023/07/02 01:04:00;;;;;;;11.73;4.33;;;16.00;75.60;;;;;;5006626;28;20150;-85
2023/07/02 01:06:28;;;;;;;13.27;4.63;;;15.90;75.40;;;;;;5005705;28;20515;-84
2023/07/02 01:08:57;;;;;;;12.10;4.22;;;15.90;75.20;;;;;;4989934;28;20137;-84
2023/07/02 01:11:28;;;;;;;13.32;4.65;;;15.80;75.20;;;;;;5005883;28;20130;-84
2023/07/02 01:14:00;;;;;;;13.75;4.50;;;15.80;75.10;;;;;;5009278;28;20127;-84
2023/07/02 01:16:30;;;;;;;15.53;4.70;;;15.80;75.10;;;;;;5002818;28;20050;-84
2023/07/02 01:18:58;;;;;;;16.17;4.93;;;15.70;75.00;;;;;;4970792;28;20432;-84
2023/07/02 01:21:27;;;;;;;12.50;4.82;;;15.70;74.70;;;;;;4989812;28;20134;-84
2023/07/02 01:23:54;;;;;;;12.27;4.70;;;15.60;74.60;;;;;;5019234;28;20137;-85
2023/07/02 01:26:22;;;;;;;15.30;5.10;;;15.60;74.50;;;;;;5010340;28;20081;-85
2023/07/02 01:28:49;;;;;;;15.33;4.93;;;15.60;74.30;;;;;;5009545;28;20101;-84
2023/07/02 01:31:16;;;;;;;13.25;4.65;;;15.60;74.00;;;;;;4992864;28;20081;-84
2023/07/02 01:33:43;;;;;;;11.50;4.72;;;15.60;74.00;;;;;;4993293;28;20502;-84
2023/07/02 01:36:10;;;;;;;15.77;4.88;;;15.60;73.90;;;;;;4993082;28;20100;-84
2023/07/02 01:38:38;;;;;;;18.10;5.45;;;15.50;73.80;;;;;;4992815;28;20121;-85
2023/07/02 01:41:05;;;;;;;16.77;5.30;;;15.50;73.60;;;;;;4997385;28;20084;-84
2023/07/02 01:43:32;;;;;;;15.77;5.15;;;15.50;73.60;;;;;;5009542;28;20054;-84
2023/07/02 01:46:01;;;;;;;16.58;5.35;;;15.50;73.50;;;;;;5009381;28;20050;-84
2023/07/02 01:48:28;;;;;;;13.95;4.60;;;15.50;73.30;;;;;;4992487;28;20057;-85
2023/07/02 01:50:55;;;;;;;15.25;5.25;;;15.40;73.30;;;;;;4973400;28;20589;-84
2023/07/02 01:53:22;;;;;;;15.90;5.00;;;15.40;73.30;;;;;;4973388;28;20047;-84
2023/07/02 01:55:50;;;;;;;15.95;4.88;;;15.40;73.30;;;;;;4988571;28;20065;-85
2023/07/02 01:58:17;;;;;;;14.27;4.88;;;15.40;73.30;;;;;;4989471;28;20502;-84
2023/07/02 02:00:44;;;;;;;13.60;5.03;;;15.30;73.40;;;;;;4996718;28;20057;-84
2023/07/02 02:03:11;;;;;;;15.52;5.03;;;15.30;73.20;;;;;;5024317;28;20540;-84
2023/07/02 02:05:38;;;;;;;17.37;5.20;;;15.30;73.30;;;;;;4994637;28;20105;-85
2023/07/02 02:08:05;;;;;;;16.20;4.95;;;15.30;73.20;;;;;;5004876;28;20468;-84
2023/07/02 02:10:32;;;;;;;14.27;5.10;;;15.30;73.20;;;;;;4989499;28;20113;-84
2023/07/02 02:13:00;;;;;;;14.93;5.13;;;15.30;73.20;;;;;;4988966;28;20206;-84
2023/07/02 02:15:27;;;;;;;13.70;5.07;;;15.20;73.20;;;;;;5010823;28;20711;-84
2023/07/02 02:17:54;;;;;;;13.90;4.83;;;15.20;73.20;;;;;;4998022;28;20142;-84
2023/07/02 02:20:21;;;;;;;15.68;5.57;;;15.20;73.20;;;;;;4992141;28;20255;-84
2023/07/02 02:22:48;;;;;;;17.92;6.00;;;15.20;73.10;;;;;;5008762;28;20057;-84
2023/07/02 02:25:15;;;;;;;16.55;5.60;;;15.20;73.10;;;;;;4996695;28;20075;-84
2023/07/02 02:27:43;;;;;;;17.33;5.53;;;15.10;73.10;;;;;;4988699;28;20090;-84
2023/07/02 02:30:12;;;;;;;17.57;6.27;;;15.10;73.00;;;;;;4975367;28;20161;-84
2023/07/02 02:32:39;;;;;;;16.48;5.65;;;15.00;72.90;;;;;;5015325;28;20579;-84
2023/07/02 02:35:09;;;;;;;14.40;5.43;;;15.00;73.00;;;;;;5009804;28;20050;-84
2023/07/02 02:37:40;;;;;;;15.30;5.55;;;15.00;72.90;;;;;;4992706;28;20051;-85
2023/07/02 02:40:09;;;;;;;19.60;5.80;;;15.00;73.00;;;;;;4992194;28;20057;-84
2023/07/02 02:42:39;;;;;;;17.33;5.33;;;14.90;73.00;;;;;;4991161;28;20057;-84
2023/07/02 02:45:07;;;;;;;17.02;5.18;;;14.90;72.90;;;;;;5008216;28;20054;-84
2023/07/02 02:47:36;;;;;;;16.83;5.90;;;14.90;73.00;;;;;;4988550;28;20141;-85
2023/07/02 02:50:03;;;;;;;19.63;5.80;;;14.80;73.00;;;;;;4972364;28;20138;-84
2023/07/02 02:52:32;;;;;;;17.13;5.78;;;14.80;73.00;;;;;;4997746;28;20105;-84
2023/07/02 02:54:58;;;;;;;18.23;5.50;;;14.80;73.10;;;;;;4991686;28;20078;-85
2023/07/02 02:57:25;;;;;;;19.98;6.10;;;14.80;73.20;;;;;;5008028;28;20133;-85
2023/07/02 02:59:52;;;;;;;17.27;5.82;;;14.70;73.20;;;;;;5015868;28;20060;-84
2023/07/02 03:02:19;;;;;;;20.65;5.60;;;14.70;73.30;;;;;;5000431;28;20547;-84
2023/07/02 03:04:49;;;;;;;20.35;5.93;;;14.70;73.40;;;;;;4972295;28;20058;-84
2023/07/02 03:07:16;;;;;;;17.47;5.60;;;14.70;73.50;;;;;;5000419;28;20081;-84
2023/07/02 03:09:43;;;;;;;15.77;5.63;;;14.70;73.60;;;;;;5027780;28;20085;-84
2023/07/02 03:12:11;;;;;;;16.88;5.38;;;14.60;73.60;;;;;;5002162;28;20062;-84
2023/07/02 03:14:38;;;;;;;18.83;6.57;;;14.60;73.60;;;;;;4972137;28;20051;-84
2023/07/02 03:17:05;;;;;;;19.90;5.75;;;14.60;73.70;;;;;;4981874;28;20482;-84
2023/07/02 03:19:32;;;;;;;18.93;6.50;;;14.60;73.70;;;;;;5027588;28;20193;-84
2023/07/02 03:22:00;;;;;;;19.73;6.45;;;14.50;73.70;;;;;;5003660;28;20051;-84
2023/07/02 03:24:27;;;;;;;22.65;6.85;;;14.50;73.80;;;;;;5004466;28;20828;-84
2023/07/02 03:26:54;;;;;;;15.27;6.22;;;14.50;73.70;;;;;;5008859;28;20137;-84
2023/07/02 03:29:21;;;;;;;16.63;5.47;;;14.50;73.80;;;;;;4990939;28;20509;-84
2023/07/02 03:31:48;;;;;;;17.73;6.00;;;14.50;73.80;;;;;;4990935;28;20070;-85
2023/07/02 03:34:15;;;;;;;14.73;5.00;;;14.50;73.90;;;;;;4992965;28;20077;-84
2023/07/02 03:36:43;;;;;;;20.15;6.40;;;14.50;74.00;;;;;;5009617;28;20053;-84
2023/07/02 03:39:12;;;;;;;22.67;6.60;;;14.40;74.00;;;;;;4991279;28;20129;-84
2023/07/02 03:41:38;;;;;;;22.75;6.45;;;14.40;74.10;;;;;;4990647;28;20097;-84
2023/07/02 03:44:06;;;;;;;17.43;5.53;;;14.40;74.00;;;;;;4996257;28;20140;-84
2023/07/02 03:46:32;;;;;;;20.25;5.88;;;14.40;74.20;;;;;;5010110;28;22009;-84
2023/07/02 03:48:59;;;;;;;15.15;5.70;;;14.40;74.20;;;;;;5007703;28;20094;-84
2023/07/02 03:51:26;;;;;;;16.15;5.63;;;14.40;74.10;;;;;;5006979;28;20151;-84
2023/07/02 03:53:53;;;;;;;17.38;6.05;;;14.30;74.20;;;;;;5006559;28;20105;-84
2023/07/02 03:56:21;;;;;;;19.23;5.60;;;14.40;74.20;;;;;;4991187;28;20058;-84
2023/07/02 03:58:48;;;;;;;16.40;5.57;;;14.30;74.20;;;;;;5007251;28;20054;-84
2023/07/02 04:01:15;;;;;;;21.02;6.20;;;14.30;74.30;;;;;;5004741;28;20133;-84
2023/07/02 04:03:48;;;;;;;16.08;5.57;;;14.30;74.30;;;;;;5010881;28;20552;-84
2023/07/02 04:06:15;;;;;;;18.10;6.03;;;14.30;74.40;;;;;;4991189;28;20058;-84
2023/07/02 04:08:42;;;;;;;18.70;5.90;;;14.30;74.50;;;;;;5007178;28;20050;-84
2023/07/02 04:11:09;;;;;;;19.95;5.75;;;14.30;74.50;;;;;;5008349;28;20050;-84
2023/07/02 04:13:38;;;;;;;16.65;5.82;;;14.30;74.60;;;;;;5011548;28;20046;-84
2023/07/02 04:16:05;;;;;;;17.50;6.40;;;14.30;74.60;;;;;;5007255;28;20517;-84
2023/07/02 04:18:32;;;;;;;14.40;5.60;;;14.20;74.60;;;;;;4996562;28;20137;-84
2023/07/02 04:21:00;;;;;;;18.70;5.60;;;14.20;74.70;;;;;;5027141;28;20508;-84
2023/07/02 04:23:26;;;;;;;17.67;5.70;;;14.20;74.80;;;;;;4996526;28;20394;-84
2023/07/02 04:25:53;;;;;;;17.60;5.63;;;14.20;75.10;;;;;;4990804;28;20133;-84
2023/07/02 04:28:20;;;;;;;18.23;5.55;;;14.20;75.20;;;;;;4989841;28;20051;-84
2023/07/02 04:30:51;;;;;;;17.05;5.53;;;14.20;75.40;;;;;;4990838;28;20060;-84
2023/07/02 04:33:18;;;;;;;18.00;5.80;;;14.20;75.60;;;;;;4990674;28;20078;-84
2023/07/02 04:35:45;;;;;;;18.50;5.43;;;14.20;75.70;;;;;;5018607;28;20042;-84
2023/07/02 04:38:13;;;;;;;15.73;5.53;;;14.30;75.80;;;;;;5011153;28;20570;-84
2023/07/02 04:40:41;;;;;;;16.98;5.30;;;14.30;76.00;;;;;;4990443;28;20058;-84
2023/07/02 04:43:08;;;;;;;20.02;5.72;;;14.30;75.90;;;;;;5006828;28;20610;-84
2023/07/02 04:45:36;;;;;;;19.37;5.77;;;14.30;76.00;;;;;;5004391;28;20774;-84
2023/07/02 04:48:05;;;;;;;16.05;5.65;;;14.30;75.90;;;;;;5013352;28;20046;-84
2023/07/02 04:50:32;;;;;;;16.67;5.13;;;14.30;76.00;;;;;;4989959;28;20546;-84
2023/07/02 04:52:59;;;;;;;16.25;5.18;;;14.30;75.90;;;;;;4989094;28;20157;-84
2023/07/02 04:55:25;;;;;;;20.45;5.72;;;14.30;75.90;;;;;;5010403;28;20094;-84
2023/07/02 04:57:52;;;;;;;20.03;5.40;;;14.30;75.80;;;;;;5002360;28;20133;-84
2023/07/02 05:00:22;;;;;;;16.58;6.10;;;14.30;76.00;;;;;;5010656;28;20082;-83
2023/07/02 05:02:49;;;;;;;17.23;5.97;;;14.30;76.00;;;;;;5009664;28;20205;-82
2023/07/02 05:05:17;;;;;;;18.27;6.10;;;14.40;76.00;;;;;;5011122;28;20050;-82
2023/07/02 05:08:11;;;;;;;20.60;5.78;;;14.40;76.10;;;;;;4996042;28;20051;-82
2023/07/02 05:10:38;;;;;;;16.03;5.60;;;14.40;76.20;;;;;;4990401;28;20516;-82
2023/07/02 05:13:05;;;;;;;17.08;5.90;;;14.40;76.20;;;;;;5010562;28;20054;-82
2023/07/02 05:15:32;;;;;;;18.27;5.25;;;14.40;76.30;;;;;;4993946;28;20478;-82
2023/07/02 05:17:59;;;;;;;20.83;5.82;;;14.40;76.40;;;;;;5010386;28;20054;-82
2023/07/02 05:20:30;;;;;;;16.88;5.78;;;14.50;76.50;;;;;;5019667;28;20057;-81
2023/07/02 05:22:57;;;;;;;17.33;5.17;;;14.50;76.40;;;;;;5025521;28;20050;-82
2023/07/02 05:25:24;;;;;;;19.73;5.53;;;14.50;76.50;;;;;;5009720;28;20141;-82
2023/07/02 05:27:51;;;;;;;17.50;5.90;;;14.60;76.40;;;;;;4995356;28;20588;-82
2023/07/02 05:30:18;;;;;;;18.38;6.10;;;14.60;76.40;;;;;;5020375;28;20062;-82
2023/07/02 05:32:45;;;;;;;21.75;5.78;;;14.60;76.60;;;;;;5009981;28;20552;-82
2023/07/02 05:35:12;;;;;;;15.90;5.30;;;14.70;76.70;;;;;;5017805;28;20133;-82
2023/07/02 05:37:40;;;;;;;15.73;5.43;;;14.70;76.60;;;;;;5015823;28;20046;-81
2023/07/02 05:40:08;;;;;;;20.33;6.10;;;14.80;76.60;;;;;;4999659;28;20058;-82
2023/07/02 05:42:36;;;;;;;17.00;4.57;;;14.80;76.60;;;;;;5009692;28;20050;-82
2023/07/02 05:45:03;;;;;;;16.52;5.53;;;14.90;76.40;;;;;;5010065;28;20501;-82
2023/07/02 05:47:30;;;;;;;14.80;5.20;;;15.00;76.20;;;;;;5021217;28;20138;-83
2023/07/02 05:49:57;;;;;;;18.08;5.38;;;15.00;76.10;;;;;;5015282;28;20058;-83
2023/07/02 05:52:24;;;;;;;17.80;5.97;;;15.00;76.10;;;;;;5009636;28;20056;-83
2023/07/02 05:54:52;;;;;;;14.30;4.10;;;15.10;75.80;;;;;;4994001;28;20066;-82
2023/07/02 05:57:19;;;;;;;17.60;4.55;;;15.10;75.70;;;;;;5005338;28;20051;-83
2023/07/02 05:59:46;;;;;;;16.43;5.00;;;15.20;75.40;;;;;;5029080;28;20565;-83
2023/07/02 06:02:13;;;;;;;16.88;4.80;;;15.20;75.30;;;;;;5010821;28;20172;-82
2023/07/02 06:04:40;;;;;;;17.15;4.93;;;15.30;75.40;;;;;;5015959;28;20053;-83
2023/07/02 06:07:07;;;;;;;16.00;5.50;;;15.30;75.40;;;;;;5010816;28;20042;-82
2023/07/02 06:09:34;;;;;;;12.40;4.05;;;15.40;75.20;;;;;;5009095;28;20054;-83
2023/07/02 06:12:02;;;;;;;19.00;5.70;;;15.50;74.80;;;;;;5009156;28;20086;-82
2023/07/02 06:14:29;;;;;;;16.65;5.53;;;15.60;74.30;;;;;;5007722;28;20046;-82
2023/07/02 06:16:57;;;;;;;12.38;3.72;;;15.60;74.00;;;;;;5009335;28;20141;-82
2023/07/02 06:19:24;;;;;;;18.17;4.55;;;15.60;73.60;;;;;;5009317;28;20050;-82
2023/07/02 06:21:51;;;;;;;14.38;3.80;;;15.80;72.90;;;;;;5009128;28;20133;-82
2023/07/02 06:24:18;;;;;;;9.90;2.43;;;15.80;73.50;;;;;;4994019;28;20141;-82
2023/07/02 06:26:45;;;;;;;13.52;3.53;;;15.80;72.80;;;;;;4992490;28;20598;-83
2023/07/02 06:29:13;;;;;;;13.30;3.97;;;16.00;72.20;;;;;;5008689;28;20046;-83
2023/07/02 06:31:40;;;;;;;14.13;3.38;;;16.00;71.60;;;;;;5017160;28;20058;-83
2023/07/02 06:34:08;;;;;;;15.82;4.25;;;16.00;70.60;;;;;;5029377;28;20062;-83
2023/07/02 06:36:35;;;;;;;12.63;3.10;;;16.00;69.90;;;;;;5019945;28;20039;-83
2023/07/02 06:39:02;;;;;;;12.63;3.22;;;16.00;70.00;;;;;;4992322;28;20054;-82
2023/07/02 06:41:29;;;;;;;15.07;3.75;;;16.10;68.80;;;;;;4999254;28;20082;-82
2023/07/02 06:43:56;;;;;;;9.18;2.97;;;16.10;69.40;;;;;;4989082;28;20217;-82
2023/07/02 06:46:24;;;;;;;14.05;4.80;;;16.00;69.80;;;;;;4995844;28;20157;-82
2023/07/02 06:48:51;;;;;;;14.00;3.70;;;16.10;69.20;;;;;;5008104;28;20508;-82
2023/07/02 06:51:19;;;;;;;13.40;3.53;;;16.10;69.80;;;;;;5008555;28;20138;-82
2023/07/02 06:53:46;;;;;;;11.00;3.47;;;16.10;70.20;;;;;;5008689;28;20443;-82
2023/07/02 06:56:13;;;;;;;14.00;4.35;;;16.20;69.60;;;;;;5008368;28;20050;-82
2023/07/02 06:58:43;;;;;;;14.40;4.18;;;16.30;69.30;;;;;;5002481;28;20134;-82
2023/07/02 07:01:10;;;;;;;12.50;3.43;;;16.40;68.60;;;;;;4987844;28;20051;-83
2023/07/02 07:03:38;;;;;;;13.38;4.13;;;16.40;68.40;;;;;;4991092;28;20080;-83
2023/07/02 07:06:05;;;;;;;14.10;4.28;;;16.40;68.70;;;;;;5007160;28;20054;-83
2023/07/02 07:08:32;;;;;;;11.55;3.53;;;16.40;67.50;;;;;;5006678;28;20096;-83
2023/07/02 07:10:59;;;;;;;12.60;3.63;;;16.40;67.00;;;;;;5008051;28;20121;-83
2023/07/02 07:13:26;;;;;;;11.53;2.90;;;16.40;67.20;;;;;;5010165;28;20141;-81
2023/07/02 07:15:53;;;;;;;14.80;3.88;;;16.30;67.40;;;;;;5008345;28;20094;-81
2023/07/02 07:18:21;;;;;;;18.17;4.00;;;16.30;67.80;;;;;;5007272;28;20065;-81
2023/07/02 07:20:49;;;;;;;12.15;3.70;;;16.20;68.50;;;;;;5016077;28;20589;-81
2023/07/02 07:23:17;;;;;;;15.90;3.90;;;16.20;68.70;;;;;;5007447;28;20046;-82
2023/07/02 07:25:44;;;;;;;10.30;3.47;;;16.20;69.10;;;;;;5011156;28;20054;-81
2023/07/02 07:28:15;;;;;;;13.05;3.70;;;16.30;68.10;;;;;;5002699;28;20054;-81
2023/07/02 07:30:42;;;;;;;15.60;3.90;;;16.40;68.00;;;;;;5005369;28;20054;-81
2023/07/02 07:33:09;;;;;;;13.82;4.38;;;16.40;68.70;;;;;;5001598;28;20129;-81
2023/07/02 07:35:36;;;;;;;12.18;4.00;;;16.50;68.60;;;;;;5003563;28;20047;-81
2023/07/02 07:38:05;;;;;;;7.20;2.57;;;16.60;67.30;;;;;;5008724;28;20485;-81
2023/07/02 07:40:32;;;;;;;10.48;3.38;;;16.60;64.70;;;;;;5004753;28;20134;-82
2023/07/02 07:42:59;;;;;;;8.10;2.65;;;16.70;63.10;;;;;;5003848;28;20065;-83
2023/07/02 07:45:26;;;;;;;9.05;2.70;;;16.70;63.10;;;;;;4998102;28;20706;-81
2023/07/02 07:47:53;;;;;;;10.07;2.65;;;16.70;63.30;;;;;;4996674;28;20059;-82
2023/07/02 07:50:21;;;;;;;7.93;2.17;;;16.70;62.20;;;;;;5000036;28;20051;-82
2023/07/02 07:52:49;;;;;;;10.30;2.28;;;16.70;63.10;;;;;;5000585;28;20093;-81
2023/07/02 07:55:18;;;;;;;9.90;2.40;;;16.70;64.40;;;;;;5000191;28;20051;-82
2023/07/02 07:57:46;;;;;;;8.20;2.58;;;16.70;65.50;;;;;;4997436;28;20064;-82
2023/07/02 08:00:14;;;;;;;9.77;2.03;;;16.70;64.30;;;;;;5000623;28;20061;-82
2023/07/02 08:02:48;;;;;;;9.03;2.47;;;16.70;64.80;;;;;;5008394;28;20054;-82
2023/07/02 08:05:15;;;;;;;10.60;3.08;;;16.70;64.40;;;;;;4995088;28;20055;-82
2023/07/02 08:07:42;;;;;;;12.52;3.30;;;16.70;64.50;;;;;;5005608;28;20141;-81
2023/07/02 08:10:10;;;;;;;10.50;3.33;;;16.70;65.60;;;;;;4999117;28;20054;-81
2023/07/02 08:12:38;;;;;;;7.65;2.78;;;16.70;65.40;;;;;;4996467;28;20059;-81
2023/07/02 08:15:07;;;;;;;7.27;3.20;;;16.80;64.50;;;;;;4997910;28;20042;-82
2023/07/02 08:17:35;;;;;;;17.38;2.60;;;16.90;61.40;;;;;;5000115;28;20046;-82
2023/07/02 08:20:04;;;;;;;7.72;1.85;;;16.90;62.10;;;;;;4985887;28;20054;-82
2023/07/02 08:22:31;;;;;;;9.40;2.28;;;16.90;61.80;;;;;;5004034;28;20062;-82
2023/07/02 08:24:58;;;;;;;9.73;1.98;;;16.80;61.90;;;;;;5006014;28;20539;-82
2023/07/02 08:27:26;;;;;;;8.13;2.23;;;16.80;62.30;;;;;;4996527;28;20058;-82
2023/07/02 08:29:54;;;;;;;7.53;2.00;;;16.80;61.80;;;;;;4997507;28;20059;-82
2023/07/02 08:32:21;;;;;;;4.20;1.67;;;16.80;62.20;;;;;;4997328;28;20077;-82
2023/07/02 08:34:50;;;;;;;9.05;1.95;;;16.90;61.80;;;;;;4997218;28;20055;-81
2023/07/02 08:37:17;;;;;;;11.60;2.60;;;16.90;62.00;;;;;;4999153;28;20058;-82
2023/07/02 08:39:44;;;;;;;8.40;2.50;;;16.90;61.90;;;;;;4999779;28;20089;-82
2023/07/02 08:42:11;;;;;;;6.40;1.42;;;16.90;62.60;;;;;;5006075;28;20069;-82
2023/07/02 08:44:39;;;;;;;8.77;2.42;;;16.90;63.00;;;;;;4982321;28;20521;-82
2023/07/02 08:47:08;;;;;;;5.88;1.80;;;16.90;61.70;;;;;;4992180;28;20080;-82
2023/07/02 08:49:35;;;;;;;8.27;2.50;;;16.90;62.00;;;;;;5000922;28;20509;-82
2023/07/02 08:52:02;;;;;;;6.37;2.50;;;16.90;61.40;;;;;;4997902;28;20056;-82
2023/07/02 08:54:29;;;;;;;8.75;2.30;;;16.90;61.30;;;;;;4995882;28;20173;-82
2023/07/02 08:56:57;;;;;;;7.70;2.38;;;16.90;61.80;;;;;;4999084;28;20061;-82
2023/07/02 08:59:24;;;;;;;9.18;2.50;;;16.80;62.20;;;;;;4998872;28;20062;-82
2023/07/02 09:01:52;;;;;;;10.48;2.78;;;16.80;62.50;;;;;;4998207;28;20550;-83
2023/07/02 09:04:23;;;;;;;8.60;2.20;;;16.80;62.40;;;;;;5001843;28;20089;-82
2023/07/02 09:06:50;;;;;;;11.02;2.75;;;16.80;62.40;;;;;;5002866;28;20517;-82
2023/07/02 09:09:18;;;;;;;11.15;2.40;;;16.80;62.50;;;;;;5000952;28;20054;-82
2023/07/02 09:11:49;;;;;;;8.13;2.22;;;16.80;63.20;;;;;;4987338;28;20050;-82
2023/07/02 09:14:27;;;;;;;11.15;3.50;;;16.90;63.60;;;;;;4989914;28;20042;-83
2023/07/02 09:17:05;;;;;;;9.13;2.60;;;16.90;63.60;;;;;;4998091;28;20161;-83
2023/07/02 09:19:33;;;;;;;7.85;2.55;;;16.90;64.80;;;;;;5004268;28;20047;-82
2023/07/02 09:22:01;;;;;;;9.60;2.17;;;17.00;64.60;;;;;;4997461;28;20576;-82
2023/07/02 09:24:29;;;;;;;6.70;2.35;;;17.00;65.20;;;;;;5018887;28;20054;-82
2023/07/02 09:26:59;;;;;;;10.07;2.97;;;17.00;63.60;;;;;;4983237;28;20057;-81
2023/07/02 09:29:28;;;;;;;9.83;2.63;;;17.10;63.10;;;;;;4997945;28;20158;-83
2023/07/02 09:31:56;;;;;;;11.35;3.17;;;17.10;63.60;;;;;;4996458;28;20058;-81
2023/07/02 09:34:29;;;;;;;8.10;2.30;;;17.00;64.20;;;;;;5001118;28;20055;-80
2023/07/02 09:36:58;;;;;;;9.35;2.60;;;17.10;64.20;;;;;;5009693;28;20535;-85
2023/07/02 09:39:29;;;;;;;7.68;2.33;;;17.20;64.30;;;;;;4991714;28;20054;-83
2023/07/02 09:41:57;;;;;;;10.10;2.30;;;17.20;64.10;;;;;;4994313;28;20053;-85
2023/07/02 09:44:28;;;;;;;9.25;2.47;;;17.20;63.80;;;;;;5013304;28;20047;-84
2023/07/02 09:47:02;;;;;;;6.78;2.15;;;17.20;63.30;;;;;;5023721;28;20058;-86
2023/07/02 09:49:32;;;;;;;8.98;2.75;;;17.20;63.60;;;;;;5017458;28;20159;-87
2023/07/02 09:52:03;;;;;;;12.07;3.15;;;17.20;63.80;;;;;;4999972;28;20141;-84
2023/07/02 09:54:30;;;;;;;10.23;3.00;;;17.30;63.30;;;;;;4993044;28;20055;-82
2023/07/02 09:56:58;;;;;;;9.00;2.35;;;17.40;62.60;;;;;;5007375;28;20046;-81
2023/07/02 09:59:25;;;;;;;5.50;2.03;;;17.40;62.10;;;;;;5009510;28;20529;-83
2023/07/02 10:01:53;;;;;;;7.45;2.15;;;17.40;62.80;;;;;;5007866;28;20584;-82
2023/07/02 10:04:23;;;;;;;9.00;2.15;;;17.40;63.10;;;;;;5019242;28;20080;-83
2023/07/02 10:06:52;;;;;;;10.47;2.47;;;17.30;63.00;;;;;;5015345;28;20047;-84
2023/07/02 10:09:20;;;;;;;8.68;2.35;;;17.40;63.00;;;;;;5009882;28;20058;-82
2023/07/02 10:11:49;;;;;;;7.57;2.65;;;17.40;62.80;;;;;;5008058;28;20393;-82
2023/07/02 10:14:16;;;;;;;10.88;2.60;;;17.40;63.30;;;;;;5018236;28;20045;-82
2023/07/02 10:16:50;;;;;;;10.40;2.45;;;17.40;63.70;;;;;;5014626;28;20531;-81
2023/07/02 10:19:17;;;;;;;8.40;2.33;;;17.40;62.90;;;;;;5008397;28;20129;-81
2023/07/02 10:21:46;;;;;;;6.47;2.03;;;17.40;62.70;;;;;;5027872;28;20054;-84
2023/07/02 10:24:14;;;;;;;12.70;2.80;;;17.40;62.00;;;;;;4994421;28;20050;-86
2023/07/02 10:26:55;;;;;;;9.73;2.60;;;17.30;62.10;;;;;;4990114;28;20082;-86
2023/07/02 10:29:23;;;;;;;12.18;3.00;;;17.30;62.60;;;;;;5009794;28;20065;-84
2023/07/02 10:31:51;;;;;;;8.60;2.20;;;17.30;62.70;;;;;;5017980;28;20082;-83
2023/07/02 10:34:29;;;;;;;7.72;2.63;;;17.30;64.00;;;;;;4988263;28;20913;-87
2023/07/02 10:36:58;;;;;;;9.48;2.83;;;17.30;63.20;;;;;;5003663;28;20116;-86
2023/07/02 10:39:26;;;;;;;8.15;2.60;;;17.30;61.90;;;;;;5006559;28;20531;-85
2023/07/02 10:42:03;;;;;;;8.38;2.40;;;17.40;62.80;;;;;;5003709;28;20060;-84
2023/07/02 10:44:31;;;;;;;9.27;2.27;;;17.40;63.10;;;;;;5001846;28;20053;-81
2023/07/02 10:46:58;;;;;;;6.60;2.53;;;17.40;62.30;;;;;;5002882;28;20499;-80
2023/07/02 10:49:32;;;;;;;6.82;2.08;;;17.50;61.60;;;;;;5012294;28;20539;-81
2023/07/02 10:52:00;;;;;;;6.88;1.83;;;17.40;60.30;;;;;;5024374;28;20125;-79
2023/07/02 10:54:27;;;;;;;12.00;3.00;;;17.40;60.40;;;;;;5000543;28;20054;-80
2023/07/02 10:56:59;;;;;;;9.37;2.30;;;17.40;60.90;;;;;;5002093;28;20060;-80
2023/07/02 10:59:27;;;;;;;5.28;1.42;;;17.40;61.00;;;;;;5002452;28;20065;-80
2023/07/02 11:01:55;;;;;;;7.75;2.28;;;17.50;60.40;;;;;;5007202;28;21108;-80
2023/07/02 11:04:23;;;;;;;9.30;2.25;;;17.50;60.00;;;;;;5003672;28;20112;-80
2023/07/02 11:06:50;;;;;;;11.23;1.80;;;17.50;60.00;;;;;;5010614;28;20050;-80
2023/07/02 11:09:20;;;;;;;8.10;2.50;;;17.60;60.50;;;;;;4989781;28;20059;-80
2023/07/02 11:11:53;;;;;;;4.63;1.75;;;17.60;60.40;;;;;;5004736;28;20945;-79
2023/07/02 11:14:31;;;;;;;8.73;2.45;;;17.60;60.10;;;;;;5007395;28;20903;-80
2023/07/02 11:17:02;;;;;;;9.07;2.30;;;17.60;61.40;;;;;;5023984;28;20054;-80
2023/07/02 11:19:30;;;;;;;7.03;2.00;;;17.50;62.20;;;;;;5006859;28;20042;-80
2023/07/02 11:21:59;;;;;;;8.97;1.90;;;17.50;63.20;;;;;;5009470;28;20066;-79
2023/07/02 11:24:32;;;;;;;8.95;3.00;;;17.50;62.80;;;;;;5000706;28;21015;-79
2023/07/02 11:27:00;;;;;;;7.43;1.75;;;17.50;63.30;;;;;;5015725;28;20051;-79
2023/07/02 11:29:27;;;;;;;7.55;2.03;;;17.50;62.80;;;;;;4998618;28;20051;-78
2023/07/02 11:31:55;;;;;;;10.00;2.97;;;17.50;63.30;;;;;;5000074;28;20110;-78
2023/07/02 11:34:23;;;;;;;7.53;1.87;;;17.50;63.60;;;;;;5001983;28;20047;-78
2023/07/02 11:36:53;;;;;;;6.70;1.75;;;17.50;63.00;;;;;;5000080;28;20158;-78
2023/07/02 11:39:20;;;;;;;5.50;1.45;;;17.50;62.60;;;;;;5004300;28;20057;-78
2023/07/02 11:41:50;;;;;;;10.25;2.80;;;17.60;63.00;;;;;;5008099;28;20058;-79
2023/07/02 11:44:17;;;;;;;7.78;2.13;;;17.70;63.00;;;;;;5000169;28;20055;-77
2023/07/02 11:46:46;;;;;;;6.73;2.03;;;17.80;62.60;;;;;;5003038;28;20054;-79
2023/07/02 11:49:15;;;;;;;6.60;1.90;;;17.80;61.90;;;;;;5005499;28;20058;-78
2023/07/02 11:51:48;;;;;;;7.47;1.92;;;17.90;62.70;;;;;;4997338;28;20047;-79
2023/07/02 11:54:15;;;;;;;5.70;1.80;;;18.00;60.80;;;;;;5009036;28;20061;-80
2023/07/02 11:56:42;;;;;;;12.07;2.58;;;18.00;60.80;;;;;;5009096;28;20054;-80
2023/07/02 11:59:10;;;;;;;6.53;1.53;;;18.00;61.40;;;;;;5004365;28;20057;-79
2023/07/02 12:01:37;;;;;;;8.73;2.10;;;18.00;62.30;;;;;;5010218;28;20056;-80
2023/07/02 12:04:05;;;;;;;14.77;2.70;;;18.00;60.50;;;;;;4969928;28;20097;-79
2023/07/02 12:06:33;;;;;;;7.18;1.98;;;18.00;59.60;;;;;;4998527;28;20057;-79
2023/07/02 12:09:00;;;;;;;6.30;1.63;;;18.00;60.00;;;;;;5012961;28;20052;-80
2023/07/02 12:11:27;;;;;;;7.50;2.13;;;17.90;57.70;;;;;;5025332;28;20056;-79
2023/07/02 12:13:55;;;;;;;6.50;1.75;;;17.90;58.80;;;;;;5001647;28;20057;-80
2023/07/02 12:16:22;;;;;;;5.07;1.80;;;17.80;59.80;;;;;;4989708;28;20050;-80
2023/07/02 12:18:49;;;;;;;7.18;1.63;;;17.80;60.10;;;;;;5019939;28;20054;-79
2023/07/02 12:21:18;;;;;;;6.95;2.00;;;17.90;59.30;;;;;;5007863;28;20046;-80
2023/07/02 12:23:46;;;;;;;7.87;2.03;;;18.00;59.40;;;;;;5008067;28;20054;-79
2023/07/02 12:26:13;;;;;;;8.63;2.28;;;18.10;59.50;;;;;;5008560;28;20061;-79
2023/07/02 12:28:40;;;;;;;7.15;2.17;;;18.20;58.90;;;;;;5009265;28;20524;-79
2023/07/02 12:31:08;;;;;;;6.50;1.80;;;18.30;58.30;;;;;;5007580;28;20054;-79
2023/07/02 12:33:35;;;;;;;7.15;2.10;;;18.30;56.90;;;;;;5009400;28;20536;-79
2023/07/02 12:36:03;;;;;;;6.03;2.30;;;18.30;57.10;;;;;;4991671;28;20529;-79
2023/07/02 12:38:30;;;;;;;6.97;1.52;;;18.30;57.80;;;;;;5007799;28;20137;-79
2023/07/02 12:40:58;;;;;;;5.55;2.10;;;18.30;57.60;;;;;;5007538;28;20062;-79
2023/07/02 12:43:25;;;;;;;8.63;2.03;;;18.30;57.20;;;;;;5008330;28;20057;-79
2023/07/02 12:45:52;;;;;;;7.88;2.50;;;18.30;57.60;;;;;;5007761;28;20857;-80